KVHN/VHN METAR and TAF weather

Enter ICAO airport designator
Station Type Date Time Source
KVHN METAR 2021/08/02 03:15 UTC NOAA

KVHN 020315Z AUTO 20009KT 10SM OVC100 23/17 A3028 RMK AO2 T02290173


Station Type Date Time Source
KVHN Decoded METAR 2021/08/02 03:15 UTC NOAA

Station name not available
Aug 01, 2021 - 11:15 PM EDT / 2021.08.02 0315 UTC
Wind: from the SSW (200 degrees) at 10 MPH (9 KT):0
Visibility: 10 mile(s):0
Sky conditions: overcast
Temperature: 73.2 F (22.9 C)
Dew Point: 63.1 F (17.3 C)
Relative Humidity: 70%
Pressure (altimeter): 30.28 in. Hg (1025 hPa)
ob: KVHN 020315Z AUTO 20009KT 10SM OVC100 23/17 A3028 RMK AO2 T02290173
cycle: 3

Station Type Date Time Source
KVHN TAF UTC NOAA

Error!

Example: see airport list